sensor_id;sensor_type;location;lat;lon;timestamp;P1;durP1;ratioP1;P2;durP2;ratioP2
8881;SDS011;4477;48.736;9.176;2023-12-29T00:01:37;4.27;;;2.33;;
8881;SDS011;4477;48.736;9.176;2023-12-29T00:04:04;3.97;;;2.50;;
8881;SDS011;4477;48.736;9.176;2023-12-29T00:06:31;2.43;;;2.20;;
8881;SDS011;4477;48.736;9.176;2023-12-29T00:08:57;2.60;;;2.10;;
8881;SDS011;4477;48.736;9.176;2023-12-29T00:11:25;3.00;;;2.40;;
8881;SDS011;4477;48.736;9.176;2023-12-29T00:13:52;3.07;;;2.70;;
8881;SDS011;4477;48.736;9.176;2023-12-29T00:16:20;2.43;;;2.23;;
8881;SDS011;4477;48.736;9.176;2023-12-29T00:18:47;2.70;;;2.50;;
8881;SDS011;4477;48.736;9.176;2023-12-29T00:21:14;2.60;;;2.37;;
8881;SDS011;4477;48.736;9.176;2023-12-29T00:23:41;3.30;;;2.43;;
8881;SDS011;4477;48.736;9.176;2023-12-29T00:26:08;2.80;;;2.47;;
8881;SDS011;4477;48.736;9.176;2023-12-29T00:28:35;3.50;;;2.60;;
8881;SDS011;4477;48.736;9.176;2023-12-29T00:31:05;2.93;;;2.37;;
8881;SDS011;4477;48.736;9.176;2023-12-29T00:33:33;2.37;;;2.17;;
8881;SDS011;4477;48.736;9.176;2023-12-29T00:36:00;4.73;;;2.87;;
8881;SDS011;4477;48.736;9.176;2023-12-29T00:38:27;3.43;;;2.70;;
8881;SDS011;4477;48.736;9.176;2023-12-29T00:40:55;3.47;;;3.13;;
8881;SDS011;4477;48.736;9.176;2023-12-29T00:43:22;3.00;;;2.50;;
8881;SDS011;4477;48.736;9.176;2023-12-29T00:45:49;3.73;;;2.50;;
8881;SDS011;4477;48.736;9.176;2023-12-29T00:48:15;4.17;;;2.53;;
8881;SDS011;4477;48.736;9.176;2023-12-29T00:50:44;3.90;;;2.70;;
8881;SDS011;4477;48.736;9.176;2023-12-29T00:53:11;3.03;;;2.47;;
8881;SDS011;4477;48.736;9.176;2023-12-29T00:55:38;2.80;;;2.50;;
8881;SDS011;4477;48.736;9.176;2023-12-29T00:58:04;2.77;;;2.53;;
8881;SDS011;4477;48.736;9.176;2023-12-29T01:00:31;3.40;;;2.77;;
8881;SDS011;4477;48.736;9.176;2023-12-29T01:02:58;3.43;;;2.80;;
8881;SDS011;4477;48.736;9.176;2023-12-29T01:05:25;3.10;;;2.70;;
8881;SDS011;4477;48.736;9.176;2023-12-29T01:07:54;3.70;;;2.43;;
8881;SDS011;4477;48.736;9.176;2023-12-29T01:10:21;2.83;;;2.57;;
8881;SDS011;4477;48.736;9.176;2023-12-29T01:12:48;3.00;;;2.70;;
8881;SDS011;4477;48.736;9.176;2023-12-29T01:15:14;3.63;;;2.87;;
8881;SDS011;4477;48.736;9.176;2023-12-29T01:17:42;2.93;;;2.70;;
8881;SDS011;4477;48.736;9.176;2023-12-29T01:20:09;3.00;;;2.70;;
8881;SDS011;4477;48.736;9.176;2023-12-29T01:22:36;4.00;;;2.73;;
8881;SDS011;4477;48.736;9.176;2023-12-29T01:25:05;3.20;;;2.80;;
8881;SDS011;4477;48.736;9.176;2023-12-29T01:27:32;3.10;;;2.80;;
8881;SDS011;4477;48.736;9.176;2023-12-29T01:29:59;3.40;;;2.97;;
8881;SDS011;4477;48.736;9.176;2023-12-29T01:32:26;3.30;;;2.70;;
8881;SDS011;4477;48.736;9.176;2023-12-29T01:34:53;3.90;;;2.97;;
8881;SDS011;4477;48.736;9.176;2023-12-29T01:37:20;2.87;;;2.67;;
8881;SDS011;4477;48.736;9.176;2023-12-29T01:39:46;2.87;;;2.63;;
8881;SDS011;4477;48.736;9.176;2023-12-29T01:42:15;3.23;;;2.93;;
8881;SDS011;4477;48.736;9.176;2023-12-29T01:44:42;4.33;;;3.20;;
8881;SDS011;4477;48.736;9.176;2023-12-29T01:47:10;3.03;;;2.73;;
8881;SDS011;4477;48.736;9.176;2023-12-29T01:49:40;6.40;;;3.20;;
8881;SDS011;4477;48.736;9.176;2023-12-29T01:52:07;3.90;;;3.00;;
8881;SDS011;4477;48.736;9.176;2023-12-29T01:54:35;3.87;;;3.03;;
8881;SDS011;4477;48.736;9.176;2023-12-29T01:57:03;3.17;;;2.73;;
8881;SDS011;4477;48.736;9.176;2023-12-29T01:59:32;3.70;;;3.10;;
8881;SDS011;4477;48.736;9.176;2023-12-29T02:01:59;3.33;;;2.97;;
8881;SDS011;4477;48.736;9.176;2023-12-29T02:04:39;3.63;;;2.77;;
8881;SDS011;4477;48.736;9.176;2023-12-29T02:07:07;4.90;;;3.30;;
8881;SDS011;4477;48.736;9.176;2023-12-29T02:09:34;3.97;;;3.23;;
8881;SDS011;4477;48.736;9.176;2023-12-29T02:12:01;5.80;;;3.37;;
8881;SDS011;4477;48.736;9.176;2023-12-29T02:14:28;4.30;;;3.20;;
8881;SDS011;4477;48.736;9.176;2023-12-29T02:16:58;4.03;;;3.10;;
8881;SDS011;4477;48.736;9.176;2023-12-29T02:19:38;3.93;;;3.23;;
8881;SDS011;4477;48.736;9.176;2023-12-29T02:22:09;3.57;;;3.23;;
8881;SDS011;4477;48.736;9.176;2023-12-29T02:24:36;5.07;;;3.70;;
8881;SDS011;4477;48.736;9.176;2023-12-29T02:27:09;4.63;;;3.10;;
8881;SDS011;4477;48.736;9.176;2023-12-29T02:29:42;3.70;;;3.13;;
8881;SDS011;4477;48.736;9.176;2023-12-29T02:32:16;4.00;;;3.60;;
8881;SDS011;4477;48.736;9.176;2023-12-29T02:34:46;4.30;;;3.10;;
8881;SDS011;4477;48.736;9.176;2023-12-29T02:37:16;4.20;;;3.40;;
8881;SDS011;4477;48.736;9.176;2023-12-29T02:39:45;3.77;;;3.47;;
8881;SDS011;4477;48.736;9.176;2023-12-29T02:42:14;3.67;;;3.30;;
8881;SDS011;4477;48.736;9.176;2023-12-29T02:44:41;4.57;;;3.70;;
8881;SDS011;4477;48.736;9.176;2023-12-29T02:47:08;4.63;;;3.20;;
8881;SDS011;4477;48.736;9.176;2023-12-29T02:49:34;4.60;;;3.73;;
8881;SDS011;4477;48.736;9.176;2023-12-29T02:52:01;6.73;;;3.27;;
8881;SDS011;4477;48.736;9.176;2023-12-29T02:54:28;4.30;;;3.90;;
8881;SDS011;4477;48.736;9.176;2023-12-29T02:56:55;4.47;;;3.23;;
8881;SDS011;4477;48.736;9.176;2023-12-29T02:59:24;4.63;;;3.80;;
8881;SDS011;4477;48.736;9.176;2023-12-29T03:01:50;4.47;;;3.77;;
8881;SDS011;4477;48.736;9.176;2023-12-29T03:04:17;3.97;;;3.57;;
8881;SDS011;4477;48.736;9.176;2023-12-29T03:06:44;5.40;;;3.57;;
8881;SDS011;4477;48.736;9.176;2023-12-29T03:09:11;3.70;;;3.40;;
8881;SDS011;4477;48.736;9.176;2023-12-29T03:11:38;4.83;;;3.73;;
8881;SDS011;4477;48.736;9.176;2023-12-29T03:14:05;6.87;;;3.60;;
8881;SDS011;4477;48.736;9.176;2023-12-29T03:16:33;5.10;;;3.73;;
8881;SDS011;4477;48.736;9.176;2023-12-29T03:19:00;5.27;;;4.00;;
8881;SDS011;4477;48.736;9.176;2023-12-29T03:21:27;5.43;;;3.70;;
8881;SDS011;4477;48.736;9.176;2023-12-29T03:23:54;4.70;;;4.20;;
8881;SDS011;4477;48.736;9.176;2023-12-29T03:26:21;5.10;;;3.70;;
8881;SDS011;4477;48.736;9.176;2023-12-29T03:28:47;4.23;;;3.37;;
8881;SDS011;4477;48.736;9.176;2023-12-29T03:31:14;3.90;;;3.50;;
8881;SDS011;4477;48.736;9.176;2023-12-29T03:33:43;6.93;;;3.80;;
8881;SDS011;4477;48.736;9.176;2023-12-29T03:36:10;3.97;;;3.50;;
8881;SDS011;4477;48.736;9.176;2023-12-29T03:38:36;4.57;;;3.93;;
8881;SDS011;4477;48.736;9.176;2023-12-29T03:41:03;3.90;;;3.50;;
8881;SDS011;4477;48.736;9.176;2023-12-29T03:43:30;3.93;;;3.53;;
8881;SDS011;4477;48.736;9.176;2023-12-29T03:45:57;5.97;;;3.33;;
8881;SDS011;4477;48.736;9.176;2023-12-29T03:48:24;4.97;;;3.73;;
8881;SDS011;4477;48.736;9.176;2023-12-29T03:50:52;5.33;;;3.70;;
8881;SDS011;4477;48.736;9.176;2023-12-29T03:53:19;4.30;;;3.43;;
8881;SDS011;4477;48.736;9.176;2023-12-29T03:55:46;4.03;;;3.63;;
8881;SDS011;4477;48.736;9.176;2023-12-29T03:58:13;5.10;;;3.57;;
8881;SDS011;4477;48.736;9.176;2023-12-29T04:00:40;3.90;;;3.57;;
8881;SDS011;4477;48.736;9.176;2023-12-29T04:03:07;4.57;;;3.80;;
8881;SDS011;4477;48.736;9.176;2023-12-29T04:05:34;3.67;;;3.37;;
8881;SDS011;4477;48.736;9.176;2023-12-29T04:08:02;3.80;;;3.47;;
8881;SDS011;4477;48.736;9.176;2023-12-29T04:10:29;4.37;;;3.40;;
8881;SDS011;4477;48.736;9.176;2023-12-29T04:12:56;4.20;;;3.50;;
8881;SDS011;4477;48.736;9.176;2023-12-29T04:15:23;3.60;;;3.30;;
8881;SDS011;4477;48.736;9.176;2023-12-29T04:17:50;3.87;;;3.53;;
8881;SDS011;4477;48.736;9.176;2023-12-29T04:20:17;3.90;;;3.50;;
8881;SDS011;4477;48.736;9.176;2023-12-29T04:22:44;4.63;;;3.60;;
8881;SDS011;4477;48.736;9.176;2023-12-29T04:25:13;4.90;;;3.80;;
8881;SDS011;4477;48.736;9.176;2023-12-29T04:27:40;4.47;;;3.37;;
8881;SDS011;4477;48.736;9.176;2023-12-29T04:30:08;4.03;;;3.57;;
8881;SDS011;4477;48.736;9.176;2023-12-29T04:32:35;4.17;;;3.67;;
8881;SDS011;4477;48.736;9.176;2023-12-29T04:35:02;4.03;;;3.33;;
8881;SDS011;4477;48.736;9.176;2023-12-29T04:37:29;4.83;;;3.30;;
8881;SDS011;4477;48.736;9.176;2023-12-29T04:39:56;3.87;;;3.27;;
8881;SDS011;4477;48.736;9.176;2023-12-29T04:42:24;3.90;;;3.50;;
8881;SDS011;4477;48.736;9.176;2023-12-29T04:44:51;5.00;;;3.37;;
8881;SDS011;4477;48.736;9.176;2023-12-29T04:47:18;4.17;;;3.77;;
8881;SDS011;4477;48.736;9.176;2023-12-29T04:49:45;4.13;;;3.73;;
8881;SDS011;4477;48.736;9.176;2023-12-29T04:52:12;4.10;;;3.67;;
8881;SDS011;4477;48.736;9.176;2023-12-29T04:54:39;5.47;;;3.70;;
8881;SDS011;4477;48.736;9.176;2023-12-29T04:57:06;5.17;;;3.90;;
8881;SDS011;4477;48.736;9.176;2023-12-29T04:59:34;4.13;;;3.30;;
8881;SDS011;4477;48.736;9.176;2023-12-29T05:02:01;4.97;;;3.77;;
8881;SDS011;4477;48.736;9.176;2023-12-29T05:04:28;4.67;;;3.53;;
8881;SDS011;4477;48.736;9.176;2023-12-29T05:06:55;4.03;;;3.37;;
8881;SDS011;4477;48.736;9.176;2023-12-29T05:09:22;3.33;;;3.03;;
8881;SDS011;4477;48.736;9.176;2023-12-29T05:11:48;4.57;;;3.97;;
8881;SDS011;4477;48.736;9.176;2023-12-29T05:14:15;5.27;;;4.07;;
8881;SDS011;4477;48.736;9.176;2023-12-29T05:16:44;4.87;;;3.80;;
8881;SDS011;4477;48.736;9.176;2023-12-29T05:19:11;4.80;;;4.27;;
8881;SDS011;4477;48.736;9.176;2023-12-29T05:21:37;5.63;;;4.00;;
8881;SDS011;4477;48.736;9.176;2023-12-29T05:24:04;3.93;;;3.57;;
8881;SDS011;4477;48.736;9.176;2023-12-29T05:26:31;5.13;;;3.87;;
8881;SDS011;4477;48.736;9.176;2023-12-29T05:28:58;6.20;;;4.23;;
8881;SDS011;4477;48.736;9.176;2023-12-29T05:31:25;5.60;;;3.97;;
8881;SDS011;4477;48.736;9.176;2023-12-29T05:33:53;4.90;;;4.30;;
8881;SDS011;4477;48.736;9.176;2023-12-29T05:36:21;5.60;;;3.87;;
8881;SDS011;4477;48.736;9.176;2023-12-29T05:38:48;5.20;;;4.13;;
8881;SDS011;4477;48.736;9.176;2023-12-29T05:41:15;5.03;;;4.10;;
8881;SDS011;4477;48.736;9.176;2023-12-29T05:43:42;4.50;;;4.10;;
8881;SDS011;4477;48.736;9.176;2023-12-29T05:46:09;4.23;;;3.83;;
8881;SDS011;4477;48.736;9.176;2023-12-29T05:48:37;4.77;;;4.20;;
8881;SDS011;4477;48.736;9.176;2023-12-29T05:51:07;4.40;;;3.90;;
8881;SDS011;4477;48.736;9.176;2023-12-29T05:53:35;6.80;;;4.30;;
8881;SDS011;4477;48.736;9.176;2023-12-29T05:56:02;5.00;;;4.33;;
8881;SDS011;4477;48.736;9.176;2023-12-29T05:58:29;4.97;;;3.97;;
8881;SDS011;4477;48.736;9.176;2023-12-29T06:00:56;6.37;;;4.70;;
8881;SDS011;4477;48.736;9.176;2023-12-29T06:03:24;4.60;;;4.07;;
8881;SDS011;4477;48.736;9.176;2023-12-29T06:05:51;5.17;;;4.40;;
8881;SDS011;4477;48.736;9.176;2023-12-29T06:08:19;4.93;;;4.27;;
8881;SDS011;4477;48.736;9.176;2023-12-29T06:10:46;6.20;;;4.97;;
8881;SDS011;4477;48.736;9.176;2023-12-29T06:13:13;6.40;;;4.63;;
8881;SDS011;4477;48.736;9.176;2023-12-29T06:15:40;4.73;;;4.07;;
8881;SDS011;4477;48.736;9.176;2023-12-29T06:18:07;6.33;;;4.77;;
8881;SDS011;4477;48.736;9.176;2023-12-29T06:20:34;5.77;;;4.40;;
8881;SDS011;4477;48.736;9.176;2023-12-29T06:23:01;8.03;;;4.80;;
8881;SDS011;4477;48.736;9.176;2023-12-29T06:25:30;4.30;;;3.90;;
8881;SDS011;4477;48.736;9.176;2023-12-29T06:27:58;4.30;;;3.90;;
8881;SDS011;4477;48.736;9.176;2023-12-29T06:30:25;5.10;;;4.23;;
8881;SDS011;4477;48.736;9.176;2023-12-29T06:32:52;5.10;;;3.73;;
8881;SDS011;4477;48.736;9.176;2023-12-29T06:35:19;4.67;;;4.00;;
8881;SDS011;4477;48.736;9.176;2023-12-29T06:37:46;5.77;;;4.10;;
8881;SDS011;4477;48.736;9.176;2023-12-29T06:40:13;3.93;;;3.53;;
8881;SDS011;4477;48.736;9.176;2023-12-29T06:42:41;5.93;;;4.13;;
8881;SDS011;4477;48.736;9.176;2023-12-29T06:45:08;5.17;;;4.20;;
8881;SDS011;4477;48.736;9.176;2023-12-29T06:47:35;4.80;;;4.30;;
8881;SDS011;4477;48.736;9.176;2023-12-29T06:50:02;4.73;;;4.10;;
8881;SDS011;4477;48.736;9.176;2023-12-29T06:52:31;5.57;;;4.17;;
8881;SDS011;4477;48.736;9.176;2023-12-29T06:54:59;4.43;;;4.00;;
8881;SDS011;4477;48.736;9.176;2023-12-29T06:57:26;5.17;;;4.67;;
8881;SDS011;4477;48.736;9.176;2023-12-29T06:59:55;5.90;;;4.67;;
8881;SDS011;4477;48.736;9.176;2023-12-29T07:02:22;5.50;;;4.00;;
8881;SDS011;4477;48.736;9.176;2023-12-29T07:04:49;8.80;;;4.70;;
8881;SDS011;4477;48.736;9.176;2023-12-29T07:07:16;5.50;;;4.60;;
8881;SDS011;4477;48.736;9.176;2023-12-29T07:09:43;5.37;;;4.60;;
8881;SDS011;4477;48.736;9.176;2023-12-29T07:12:10;6.33;;;4.70;;
8881;SDS011;4477;48.736;9.176;2023-12-29T07:14:36;5.60;;;4.17;;
8881;SDS011;4477;48.736;9.176;2023-12-29T07:17:05;10.17;;;4.53;;
8881;SDS011;4477;48.736;9.176;2023-12-29T07:19:32;6.83;;;4.90;;
8881;SDS011;4477;48.736;9.176;2023-12-29T07:22:02;8.17;;;4.30;;
8881;SDS011;4477;48.736;9.176;2023-12-29T07:24:30;4.77;;;4.20;;
8881;SDS011;4477;48.736;9.176;2023-12-29T07:26:58;4.17;;;3.53;;
8881;SDS011;4477;48.736;9.176;2023-12-29T07:29:25;5.20;;;3.67;;
8881;SDS011;4477;48.736;9.176;2023-12-29T07:31:52;5.97;;;4.40;;
8881;SDS011;4477;48.736;9.176;2023-12-29T07:34:20;5.27;;;4.17;;
8881;SDS011;4477;48.736;9.176;2023-12-29T07:36:47;5.70;;;4.47;;
8881;SDS011;4477;48.736;9.176;2023-12-29T07:39:14;5.50;;;4.00;;
8881;SDS011;4477;48.736;9.176;2023-12-29T07:41:41;7.53;;;4.30;;
8881;SDS011;4477;48.736;9.176;2023-12-29T07:44:09;5.90;;;4.00;;
8881;SDS011;4477;48.736;9.176;2023-12-29T07:46:35;4.77;;;4.23;;
8881;SDS011;4477;48.736;9.176;2023-12-29T07:49:03;5.13;;;4.20;;
8881;SDS011;4477;48.736;9.176;2023-12-29T07:51:31;7.83;;;4.07;;
8881;SDS011;4477;48.736;9.176;2023-12-29T07:53:59;4.97;;;4.47;;
8881;SDS011;4477;48.736;9.176;2023-12-29T07:56:26;4.13;;;3.70;;
8881;SDS011;4477;48.736;9.176;2023-12-29T07:58:52;5.47;;;4.27;;
8881;SDS011;4477;48.736;9.176;2023-12-29T08:01:19;4.73;;;4.10;;
8881;SDS011;4477;48.736;9.176;2023-12-29T08:03:46;5.23;;;4.17;;
8881;SDS011;4477;48.736;9.176;2023-12-29T08:06:13;4.60;;;3.80;;
8881;SDS011;4477;48.736;9.176;2023-12-29T08:08:42;5.07;;;3.60;;
8881;SDS011;4477;48.736;9.176;2023-12-29T08:11:12;4.70;;;4.20;;
8881;SDS011;4477;48.736;9.176;2023-12-29T08:13:40;4.10;;;3.70;;
8881;SDS011;4477;48.736;9.176;2023-12-29T08:16:07;6.40;;;4.00;;
8881;SDS011;4477;48.736;9.176;2023-12-29T08:18:34;4.57;;;3.53;;
8881;SDS011;4477;48.736;9.176;2023-12-29T08:21:01;4.27;;;3.70;;
8881;SDS011;4477;48.736;9.176;2023-12-29T08:23:28;4.97;;;4.10;;
8881;SDS011;4477;48.736;9.176;2023-12-29T08:25:57;5.30;;;4.30;;
8881;SDS011;4477;48.736;9.176;2023-12-29T08:28:25;4.73;;;3.87;;
8881;SDS011;4477;48.736;9.176;2023-12-29T08:30:52;4.93;;;3.93;;
8881;SDS011;4477;48.736;9.176;2023-12-29T08:33:19;4.87;;;3.90;;
8881;SDS011;4477;48.736;9.176;2023-12-29T08:35:46;5.33;;;4.07;;
8881;SDS011;4477;48.736;9.176;2023-12-29T08:38:12;6.27;;;4.20;;
8881;SDS011;4477;48.736;9.176;2023-12-29T08:40:40;4.33;;;3.80;;
8881;SDS011;4477;48.736;9.176;2023-12-29T08:43:08;7.20;;;4.20;;
8881;SDS011;4477;48.736;9.176;2023-12-29T08:45:36;5.07;;;4.13;;
8881;SDS011;4477;48.736;9.176;2023-12-29T08:48:03;4.80;;;3.87;;
8881;SDS011;4477;48.736;9.176;2023-12-29T08:50:31;4.73;;;3.83;;
8881;SDS011;4477;48.736;9.176;2023-12-29T08:52:58;4.57;;;4.00;;
8881;SDS011;4477;48.736;9.176;2023-12-29T08:55:25;5.33;;;3.70;;
8881;SDS011;4477;48.736;9.176;2023-12-29T08:57:51;4.97;;;4.33;;
8881;SDS011;4477;48.736;9.176;2023-12-29T09:00:21;5.00;;;3.93;;
8881;SDS011;4477;48.736;9.176;2023-12-29T09:02:48;4.67;;;3.93;;
8881;SDS011;4477;48.736;9.176;2023-12-29T09:05:15;4.63;;;4.00;;
8881;SDS011;4477;48.736;9.176;2023-12-29T09:07:42;4.73;;;3.90;;
8881;SDS011;4477;48.736;9.176;2023-12-29T09:10:09;4.73;;;3.43;;
8881;SDS011;4477;48.736;9.176;2023-12-29T09:12:37;4.33;;;3.50;;
8881;SDS011;4477;48.736;9.176;2023-12-29T09:15:05;4.47;;;3.53;;
8881;SDS011;4477;48.736;9.176;2023-12-29T09:17:34;3.33;;;2.83;;
8881;SDS011;4477;48.736;9.176;2023-12-29T09:20:01;5.33;;;3.47;;
8881;SDS011;4477;48.736;9.176;2023-12-29T09:22:29;3.10;;;2.80;;
8881;SDS011;4477;48.736;9.176;2023-12-29T09:24:56;3.10;;;2.80;;
8881;SDS011;4477;48.736;9.176;2023-12-29T09:27:23;4.60;;;2.80;;
8881;SDS011;4477;48.736;9.176;2023-12-29T09:29:50;3.47;;;2.30;;
8881;SDS011;4477;48.736;9.176;2023-12-29T09:32:16;3.23;;;2.40;;
8881;SDS011;4477;48.736;9.176;2023-12-29T09:38:07;2.87;;;2.40;;
8881;SDS011;4477;48.736;9.176;2023-12-29T09:40:35;2.70;;;2.30;;
8881;SDS011;4477;48.736;9.176;2023-12-29T09:43:02;3.17;;;2.60;;
8881;SDS011;4477;48.736;9.176;2023-12-29T09:45:30;4.03;;;2.30;;
8881;SDS011;4477;48.736;9.176;2023-12-29T09:47:59;4.30;;;2.77;;
8881;SDS011;4477;48.736;9.176;2023-12-29T09:50:29;3.70;;;2.73;;
8881;SDS011;4477;48.736;9.176;2023-12-29T09:52:55;2.70;;;2.33;;
8881;SDS011;4477;48.736;9.176;2023-12-29T09:55:25;3.40;;;2.13;;
8881;SDS011;4477;48.736;9.176;2023-12-29T09:57:53;3.60;;;2.50;;
8881;SDS011;4477;48.736;9.176;2023-12-29T10:00:20;2.50;;;2.30;;
8881;SDS011;4477;48.736;9.176;2023-12-29T10:02:47;2.43;;;1.90;;
8881;SDS011;4477;48.736;9.176;2023-12-29T10:05:18;2.83;;;2.00;;
8881;SDS011;4477;48.736;9.176;2023-12-29T10:07:45;3.57;;;2.60;;
8881;SDS011;4477;48.736;9.176;2023-12-29T10:10:14;3.17;;;2.13;;
8881;SDS011;4477;48.736;9.176;2023-12-29T10:12:43;2.40;;;2.20;;
8881;SDS011;4477;48.736;9.176;2023-12-29T10:15:15;4.03;;;2.60;;
8881;SDS011;4477;48.736;9.176;2023-12-29T10:17:48;2.30;;;2.10;;
8881;SDS011;4477;48.736;9.176;2023-12-29T10:20:22;2.60;;;2.27;;
8881;SDS011;4477;48.736;9.176;2023-12-29T10:23:05;2.70;;;1.70;;
8881;SDS011;4477;48.736;9.176;2023-12-29T10:25:33;2.23;;;1.93;;
8881;SDS011;4477;48.736;9.176;2023-12-29T10:28:02;2.33;;;1.60;;
8881;SDS011;4477;48.736;9.176;2023-12-29T10:30:30;2.20;;;1.60;;
8881;SDS011;4477;48.736;9.176;2023-12-29T10:32:57;1.40;;;1.30;;
8881;SDS011;4477;48.736;9.176;2023-12-29T10:35:25;1.40;;;1.30;;
8881;SDS011;4477;48.736;9.176;2023-12-29T10:37:52;1.20;;;1.10;;
8881;SDS011;4477;48.736;9.176;2023-12-29T10:40:19;2.17;;;1.30;;
8881;SDS011;4477;48.736;9.176;2023-12-29T10:42:53;1.57;;;1.10;;
8881;SDS011;4477;48.736;9.176;2023-12-29T10:45:23;1.30;;;1.00;;
8881;SDS011;4477;48.736;9.176;2023-12-29T10:47:50;1.10;;;0.97;;
8881;SDS011;4477;48.736;9.176;2023-12-29T10:50:17;0.90;;;0.90;;
8881;SDS011;4477;48.736;9.176;2023-12-29T10:52:44;1.20;;;1.10;;
8881;SDS011;4477;48.736;9.176;2023-12-29T10:55:12;1.27;;;1.10;;
8881;SDS011;4477;48.736;9.176;2023-12-29T10:57:39;3.23;;;1.40;;
8881;SDS011;4477;48.736;9.176;2023-12-29T11:00:07;1.43;;;1.33;;
8881;SDS011;4477;48.736;9.176;2023-12-29T11:02:38;1.73;;;1.23;;
8881;SDS011;4477;48.736;9.176;2023-12-29T11:05:06;1.20;;;1.10;;
8881;SDS011;4477;48.736;9.176;2023-12-29T11:07:35;1.37;;;1.27;;
8881;SDS011;4477;48.736;9.176;2023-12-29T11:10:03;0.90;;;0.90;;
8881;SDS011;4477;48.736;9.176;2023-12-29T11:12:32;1.53;;;1.20;;
8881;SDS011;4477;48.736;9.176;2023-12-29T11:15:00;1.33;;;1.10;;
8881;SDS011;4477;48.736;9.176;2023-12-29T11:17:29;1.70;;;1.10;;
8881;SDS011;4477;48.736;9.176;2023-12-29T11:19:59;1.30;;;1.20;;
8881;SDS011;4477;48.736;9.176;2023-12-29T11:22:28;1.40;;;1.20;;
8881;SDS011;4477;48.736;9.176;2023-12-29T11:24:56;1.03;;;1.03;;
8881;SDS011;4477;48.736;9.176;2023-12-29T11:27:25;1.20;;;1.10;;
8881;SDS011;4477;48.736;9.176;2023-12-29T11:29:56;1.67;;;1.20;;
8881;SDS011;4477;48.736;9.176;2023-12-29T11:32:29;1.13;;;1.03;;
8881;SDS011;4477;48.736;9.176;2023-12-29T11:35:10;1.30;;;0.93;;
8881;SDS011;4477;48.736;9.176;2023-12-29T11:40:36;1.20;;;1.10;;
8881;SDS011;4477;48.736;9.176;2023-12-29T11:43:08;1.30;;;1.10;;
8881;SDS011;4477;48.736;9.176;2023-12-29T11:45:41;1.30;;;1.10;;
8881;SDS011;4477;48.736;9.176;2023-12-29T11:48:08;1.23;;;1.13;;
8881;SDS011;4477;48.736;9.176;2023-12-29T11:50:38;1.20;;;1.10;;
8881;SDS011;4477;48.736;9.176;2023-12-29T11:53:06;1.10;;;1.00;;
8881;SDS011;4477;48.736;9.176;2023-12-29T11:55:34;1.00;;;0.90;;
8881;SDS011;4477;48.736;9.176;2023-12-29T11:58:02;1.20;;;1.10;;
8881;SDS011;4477;48.736;9.176;2023-12-29T12:00:42;1.07;;;0.97;;
8881;SDS011;4477;48.736;9.176;2023-12-29T12:03:22;1.87;;;1.00;;
8881;SDS011;4477;48.736;9.176;2023-12-29T12:05:52;1.30;;;1.13;;
8881;SDS011;4477;48.736;9.176;2023-12-29T12:08:28;1.40;;;1.10;;
8881;SDS011;4477;48.736;9.176;2023-12-29T12:10:56;1.10;;;1.00;;
8881;SDS011;4477;48.736;9.176;2023-12-29T12:13:43;1.27;;;1.17;;
8881;SDS011;4477;48.736;9.176;2023-12-29T12:16:46;2.67;;;1.03;;
8881;SDS011;4477;48.736;9.176;2023-12-29T12:19:15;1.73;;;1.07;;
8881;SDS011;4477;48.736;9.176;2023-12-29T12:21:45;1.33;;;0.90;;
8881;SDS011;4477;48.736;9.176;2023-12-29T12:24:14;1.07;;;0.97;;
8881;SDS011;4477;48.736;9.176;2023-12-29T12:26:44;2.27;;;1.20;;
8881;SDS011;4477;48.736;9.176;2023-12-29T12:29:12;1.50;;;1.07;;
8881;SDS011;4477;48.736;9.176;2023-12-29T12:31:51;1.17;;;0.97;;
8881;SDS011;4477;48.736;9.176;2023-12-29T12:34:18;2.67;;;1.10;;
8881;SDS011;4477;48.736;9.176;2023-12-29T12:36:49;1.37;;;1.00;;
8881;SDS011;4477;48.736;9.176;2023-12-29T12:39:16;1.70;;;1.10;;
8881;SDS011;4477;48.736;9.176;2023-12-29T12:41:43;1.20;;;1.10;;
8881;SDS011;4477;48.736;9.176;2023-12-29T12:44:11;1.93;;;1.50;;
8881;SDS011;4477;48.736;9.176;2023-12-29T12:46:39;1.00;;;0.90;;
8881;SDS011;4477;48.736;9.176;2023-12-29T12:49:11;1.13;;;1.03;;
8881;SDS011;4477;48.736;9.176;2023-12-29T12:51:38;0.97;;;0.97;;
8881;SDS011;4477;48.736;9.176;2023-12-29T12:54:06;1.23;;;1.00;;
8881;SDS011;4477;48.736;9.176;2023-12-29T12:56:33;1.00;;;0.90;;
8881;SDS011;4477;48.736;9.176;2023-12-29T12:59:01;1.53;;;1.10;;
8881;SDS011;4477;48.736;9.176;2023-12-29T13:01:29;1.13;;;1.03;;
8881;SDS011;4477;48.736;9.176;2023-12-29T13:04:01;1.20;;;1.10;;
8881;SDS011;4477;48.736;9.176;2023-12-29T13:06:29;1.20;;;1.10;;
8881;SDS011;4477;48.736;9.176;2023-12-29T13:08:57;1.63;;;1.17;;
8881;SDS011;4477;48.736;9.176;2023-12-29T13:11:26;1.30;;;1.20;;
8881;SDS011;4477;48.736;9.176;2023-12-29T13:13:53;2.50;;;1.10;;
8881;SDS011;4477;48.736;9.176;2023-12-29T13:16:28;1.63;;;1.30;;
8881;SDS011;4477;48.736;9.176;2023-12-29T13:18:55;1.70;;;1.10;;
8881;SDS011;4477;48.736;9.176;2023-12-29T13:21:22;1.23;;;1.13;;
8881;SDS011;4477;48.736;9.176;2023-12-29T13:23:50;2.07;;;1.50;;
8881;SDS011;4477;48.736;9.176;2023-12-29T13:26:17;1.13;;;1.03;;
8881;SDS011;4477;48.736;9.176;2023-12-29T13:28:46;1.13;;;0.97;;
8881;SDS011;4477;48.736;9.176;2023-12-29T13:31:13;1.37;;;1.20;;
8881;SDS011;4477;48.736;9.176;2023-12-29T13:33:44;1.40;;;1.03;;
8881;SDS011;4477;48.736;9.176;2023-12-29T13:36:21;1.10;;;1.00;;
8881;SDS011;4477;48.736;9.176;2023-12-29T13:38:53;1.50;;;1.20;;
8881;SDS011;4477;48.736;9.176;2023-12-29T13:41:23;1.63;;;1.20;;
8881;SDS011;4477;48.736;9.176;2023-12-29T13:43:54;2.60;;;2.40;;
8881;SDS011;4477;48.736;9.176;2023-12-29T13:46:23;1.93;;;1.20;;
8881;SDS011;4477;48.736;9.176;2023-12-29T13:48:50;1.57;;;1.23;;
8881;SDS011;4477;48.736;9.176;2023-12-29T13:51:22;1.50;;;1.40;;
8881;SDS011;4477;48.736;9.176;2023-12-29T13:53:57;1.70;;;1.50;;
8881;SDS011;4477;48.736;9.176;2023-12-29T13:56:24;1.70;;;1.50;;
8881;SDS011;4477;48.736;9.176;2023-12-29T13:58:51;2.60;;;1.73;;
8881;SDS011;4477;48.736;9.176;2023-12-29T14:01:20;1.90;;;1.50;;
8881;SDS011;4477;48.736;9.176;2023-12-29T14:03:50;1.77;;;1.30;;
8881;SDS011;4477;48.736;9.176;2023-12-29T14:06:21;2.17;;;1.97;;
8881;SDS011;4477;48.736;9.176;2023-12-29T14:08:55;1.53;;;1.43;;
8881;SDS011;4477;48.736;9.176;2023-12-29T14:11:23;2.03;;;1.60;;
8881;SDS011;4477;48.736;9.176;2023-12-29T14:13:50;1.97;;;1.77;;
8881;SDS011;4477;48.736;9.176;2023-12-29T14:16:16;2.30;;;1.83;;
8881;SDS011;4477;48.736;9.176;2023-12-29T14:18:55;1.80;;;1.40;;
8881;SDS011;4477;48.736;9.176;2023-12-29T14:21:24;4.00;;;2.70;;
8881;SDS011;4477;48.736;9.176;2023-12-29T14:24:00;3.70;;;2.53;;
8881;SDS011;4477;48.736;9.176;2023-12-29T14:26:31;2.60;;;1.60;;
8881;SDS011;4477;48.736;9.176;2023-12-29T14:29:02;2.03;;;1.83;;
8881;SDS011;4477;48.736;9.176;2023-12-29T14:31:30;2.20;;;1.17;;
8881;SDS011;4477;48.736;9.176;2023-12-29T14:34:01;1.93;;;1.60;;
8881;SDS011;4477;48.736;9.176;2023-12-29T14:36:29;4.37;;;3.40;;
8881;SDS011;4477;48.736;9.176;2023-12-29T14:38:56;2.20;;;1.60;;
8881;SDS011;4477;48.736;9.176;2023-12-29T14:41:23;2.93;;;2.13;;
8881;SDS011;4477;48.736;9.176;2023-12-29T14:43:50;2.60;;;2.10;;
8881;SDS011;4477;48.736;9.176;2023-12-29T14:46:17;1.63;;;1.40;;
8881;SDS011;4477;48.736;9.176;2023-12-29T14:48:44;3.40;;;2.70;;
8881;SDS011;4477;48.736;9.176;2023-12-29T14:51:13;5.20;;;2.30;;
8881;SDS011;4477;48.736;9.176;2023-12-29T14:53:40;3.63;;;2.40;;
8881;SDS011;4477;48.736;9.176;2023-12-29T14:56:10;4.60;;;3.73;;
8881;SDS011;4477;48.736;9.176;2023-12-29T14:58:37;3.40;;;3.10;;
8881;SDS011;4477;48.736;9.176;2023-12-29T15:01:04;3.40;;;2.43;;
8881;SDS011;4477;48.736;9.176;2023-12-29T15:03:32;1.70;;;1.60;;
8881;SDS011;4477;48.736;9.176;2023-12-29T15:05:59;10.80;;;8.73;;
8881;SDS011;4477;48.736;9.176;2023-12-29T15:08:27;5.40;;;3.53;;
8881;SDS011;4477;48.736;9.176;2023-12-29T15:10:59;2.37;;;1.53;;
8881;SDS011;4477;48.736;9.176;2023-12-29T15:13:27;2.17;;;1.90;;
8881;SDS011;4477;48.736;9.176;2023-12-29T15:15:55;2.87;;;2.57;;
8881;SDS011;4477;48.736;9.176;2023-12-29T15:18:22;4.27;;;3.63;;
8881;SDS011;4477;48.736;9.176;2023-12-29T15:20:49;2.77;;;2.00;;
8881;SDS011;4477;48.736;9.176;2023-12-29T15:23:16;4.10;;;3.57;;
8881;SDS011;4477;48.736;9.176;2023-12-29T15:25:45;15.67;;;11.17;;
8881;SDS011;4477;48.736;9.176;2023-12-29T15:28:11;1.77;;;1.60;;